createdAt,value
2022-11-21T00:01:18.070Z,6.40
2022-11-21T00:03:46.384Z,6.40
2022-11-21T00:06:14.385Z,6.50
2022-11-21T00:08:43.853Z,6.50
2022-11-21T00:11:12.037Z,6.50
2022-11-21T00:13:40.188Z,6.50
2022-11-21T00:16:09.963Z,6.50
2022-11-21T00:18:38.264Z,6.50
2022-11-21T00:21:07.607Z,6.50
2022-11-21T00:23:36.621Z,6.50
2022-11-21T00:26:10.284Z,6.50
2022-11-21T00:28:38.666Z,6.50
2022-11-21T00:31:07.633Z,6.50
2022-11-21T00:33:36.650Z,6.50
2022-11-21T00:36:11.052Z,6.50
2022-11-21T00:38:39.747Z,6.50
2022-11-21T00:41:09.086Z,6.50
2022-11-21T00:43:37.078Z,6.40
2022-11-21T00:46:05.090Z,6.50
2022-11-21T00:48:33.876Z,6.40
2022-11-21T00:51:02.115Z,6.40
2022-11-21T00:53:30.690Z,6.40
2022-11-21T00:55:59.285Z,6.40
2022-11-21T00:58:29.102Z,6.30
2022-11-21T01:01:05.362Z,6.30
2022-11-21T01:03:34.772Z,6.30
2022-11-21T01:06:04.449Z,6.30
2022-11-21T01:08:32.614Z,6.30
2022-11-21T01:11:04.476Z,6.20
2022-11-21T01:13:34.430Z,6.10
2022-11-21T01:16:06.558Z,6.00
2022-11-21T01:18:34.743Z,6.00
2022-11-21T01:21:03.583Z,6.00
2022-11-21T01:23:31.891Z,6.00
2022-11-21T01:26:03.622Z,6.00
2022-11-21T01:28:33.196Z,5.90
2022-11-21T01:31:05.781Z,5.90
2022-11-21T01:33:34.552Z,5.90
2022-11-21T01:36:11.231Z,5.90
2022-11-21T01:38:39.991Z,5.90
2022-11-21T01:41:08.835Z,5.90
2022-11-21T01:43:38.141Z,5.90
2022-11-21T01:46:13.115Z,5.90
2022-11-21T01:48:47.152Z,5.90
2022-11-21T01:51:19.111Z,5.90
2022-11-21T01:53:52.260Z,5.90
2022-11-21T01:56:20.712Z,5.90
2022-11-21T01:58:51.853Z,6.00
2022-11-21T02:01:19.988Z,6.00
2022-11-21T02:03:49.289Z,5.90
2022-11-21T02:06:17.458Z,5.90
2022-11-21T02:08:46.619Z,6.00
2022-11-21T02:11:22.717Z,6.00
2022-11-21T02:13:52.304Z,6.00
2022-11-21T02:16:20.249Z,6.00
2022-11-21T02:18:48.191Z,6.00
2022-11-21T02:21:24.638Z,6.00
2022-11-21T02:24:00.554Z,6.00
2022-11-21T02:26:31.099Z,6.00
2022-11-21T02:28:59.654Z,6.00
2022-11-21T02:31:27.601Z,6.00
2022-11-21T02:33:55.526Z,6.00
2022-11-21T02:36:42.990Z,6.00
2022-11-21T02:39:15.654Z,6.10
2022-11-21T02:41:51.785Z,6.10
2022-11-21T02:44:25.667Z,6.10
2022-11-21T02:46:54.126Z,6.10
2022-11-21T02:49:40.455Z,6.10
2022-11-21T02:52:08.402Z,6.10
2022-11-21T02:54:36.333Z,6.10
2022-11-21T02:57:05.616Z,6.10
2022-11-21T02:59:33.617Z,6.10
2022-11-21T03:02:02.161Z,6.20
2022-11-21T03:04:30.259Z,6.10
2022-11-21T03:06:58.369Z,6.10
2022-11-21T03:09:26.365Z,6.10
2022-11-21T03:11:54.278Z,6.10
2022-11-21T03:14:23.586Z,6.10
2022-11-21T03:16:51.517Z,6.00
2022-11-21T03:19:19.417Z,6.00
2022-11-21T03:21:47.303Z,6.00
2022-11-21T03:24:15.205Z,6.00
2022-11-21T03:26:43.213Z,6.00
2022-11-21T03:29:11.136Z,6.00
2022-11-21T03:31:41.619Z,6.00
2022-11-21T03:34:09.677Z,6.00
2022-11-21T03:36:37.616Z,6.10
2022-11-21T03:39:05.648Z,6.10
2022-11-21T03:41:33.575Z,6.10
2022-11-21T03:44:03.692Z,6.10
2022-11-21T03:46:33.789Z,6.10
2022-11-21T03:49:03.392Z,6.10
2022-11-21T03:51:32.075Z,6.10
2022-11-21T03:54:00.194Z,6.10
2022-11-21T03:56:28.921Z,6.00
2022-11-21T03:58:57.088Z,6.10
2022-11-21T04:01:25.429Z,6.10
2022-11-21T04:03:53.653Z,6.10
2022-11-21T04:06:23.352Z,6.20
2022-11-21T04:08:51.773Z,6.10
2022-11-21T04:11:21.956Z,6.20
2022-11-21T04:13:49.893Z,6.20
2022-11-21T04:16:17.883Z,6.20
2022-11-21T04:18:45.832Z,6.20
2022-11-21T04:21:13.977Z,6.20
2022-11-21T04:23:43.270Z,6.20
2022-11-21T04:26:11.181Z,6.20
2022-11-21T04:28:39.591Z,6.20
2022-11-21T04:31:11.156Z,6.20
2022-11-21T04:33:39.915Z,6.30
2022-11-21T04:36:08.966Z,6.20
2022-11-21T04:38:37.382Z,6.20
2022-11-21T04:41:06.682Z,6.20
2022-11-21T04:43:34.628Z,6.20
2022-11-21T04:46:02.602Z,6.20
2022-11-21T04:48:30.526Z,6.20
2022-11-21T04:50:58.458Z,6.20
2022-11-21T04:53:26.394Z,6.10
2022-11-21T04:55:54.320Z,6.20
2022-11-21T04:58:23.605Z,6.20
2022-11-21T05:00:51.592Z,6.20
2022-11-21T05:03:19.575Z,6.10
2022-11-21T05:05:47.620Z,6.10
2022-11-21T05:08:15.695Z,6.00
2022-11-21T05:11:02.436Z,5.90
2022-11-21T05:13:31.739Z,5.80
2022-11-21T05:15:59.672Z,5.70
2022-11-21T05:18:29.684Z,5.60
2022-11-21T05:20:57.641Z,5.50
2022-11-21T05:23:25.656Z,5.50
2022-11-21T05:25:53.572Z,5.50
2022-11-21T05:28:21.501Z,5.50
2022-11-21T05:30:50.770Z,5.50
2022-11-21T05:33:20.313Z,5.50
2022-11-21T05:35:48.416Z,5.50
2022-11-21T05:38:16.367Z,5.40
2022-11-21T05:40:44.263Z,5.30
2022-11-21T05:43:30.558Z,5.30
2022-11-21T05:45:59.849Z,5.30
2022-11-21T05:48:27.813Z,5.30
2022-11-21T05:50:55.740Z,5.30
2022-11-21T05:53:23.640Z,5.30
2022-11-21T05:55:51.577Z,5.40
2022-11-21T05:58:19.506Z,5.40
2022-11-21T06:00:47.436Z,5.50
2022-11-21T06:03:28.065Z,5.60
2022-11-21T06:06:04.578Z,5.60
2022-11-21T06:08:34.586Z,5.50
2022-11-21T06:11:03.047Z,5.60
2022-11-21T06:13:31.415Z,5.60
2022-11-21T06:16:01.576Z,5.60
2022-11-21T06:18:33.444Z,5.60
2022-11-21T06:21:07.479Z,5.60
2022-11-21T06:23:36.541Z,5.60
2022-11-21T06:26:06.206Z,5.60
2022-11-21T06:28:36.689Z,5.70
2022-11-21T06:31:05.359Z,5.70
2022-11-21T06:33:35.872Z,5.70
2022-11-21T06:36:04.984Z,5.70
2022-11-21T06:38:33.276Z,5.70
2022-11-21T06:41:06.118Z,5.70
2022-11-21T06:43:34.404Z,5.70
2022-11-21T06:46:03.338Z,5.70
2022-11-21T06:48:31.547Z,5.60
2022-11-21T06:51:05.646Z,5.60
2022-11-21T06:53:33.969Z,5.60
2022-11-21T06:56:02.716Z,5.60
2022-11-21T06:58:30.976Z,5.60
2022-11-21T07:00:59.312Z,5.60
2022-11-21T07:03:27.291Z,5.60
2022-11-21T07:05:58.474Z,5.60
2022-11-21T07:08:28.200Z,5.60
2022-11-21T07:11:23.086Z,5.60
2022-11-21T07:13:44.349Z,5.60
2022-11-21T07:16:14.934Z,5.70
2022-11-21T07:18:43.074Z,5.70
2022-11-21T07:21:11.291Z,5.70
2022-11-21T07:23:40.554Z,5.80
2022-11-21T07:26:10.916Z,5.80
2022-11-21T07:28:39.399Z,5.80
2022-11-21T07:31:13.240Z,5.90
2022-11-21T07:33:43.619Z,5.90
2022-11-21T07:36:11.998Z,5.90
2022-11-21T07:38:42.231Z,5.90
2022-11-21T07:41:10.597Z,5.90
2022-11-21T07:43:38.565Z,5.90
2022-11-21T07:46:06.554Z,6.00
2022-11-21T07:48:34.508Z,5.90
2022-11-21T07:51:05.171Z,6.00
2022-11-21T07:53:33.079Z,6.10
2022-11-21T07:56:02.374Z,6.10
2022-11-21T07:58:30.320Z,6.20
2022-11-21T08:00:58.289Z,6.20
2022-11-21T08:03:26.258Z,6.30
2022-11-21T08:05:54.212Z,6.30
2022-11-21T08:08:22.215Z,6.40
2022-11-21T08:10:51.404Z,6.40
2022-11-21T08:13:20.710Z,6.40
2022-11-21T08:15:48.673Z,6.40
2022-11-21T08:18:18.979Z,6.30
2022-11-21T08:20:47.020Z,6.30
2022-11-21T08:23:15.178Z,6.30
2022-11-21T08:25:45.026Z,6.30
2022-11-21T08:28:13.675Z,6.30
2022-11-21T08:30:42.991Z,6.50
2022-11-21T08:33:10.999Z,6.60
2022-11-21T08:35:39.470Z,6.80
2022-11-21T08:38:07.846Z,6.90
2022-11-21T08:40:36.963Z,7.00
2022-11-21T08:43:06.336Z,7.00
2022-11-21T08:45:35.382Z,7.10
2022-11-21T08:48:05.135Z,7.10
2022-11-21T08:50:33.057Z,7.10
2022-11-21T08:53:02.264Z,7.10
2022-11-21T08:55:30.577Z,7.20
2022-11-21T08:57:58.528Z,7.30
2022-11-21T09:00:26.715Z,7.30
2022-11-21T09:02:54.648Z,7.40
2022-11-21T09:05:24.590Z,7.40
2022-11-21T09:07:57.316Z,7.50
2022-11-21T09:10:25.451Z,7.30
2022-11-21T09:12:53.739Z,7.40
2022-11-21T09:15:39.183Z,7.40
2022-11-21T09:18:08.032Z,7.30
2022-11-21T09:20:41.249Z,7.30
2022-11-21T09:23:10.476Z,7.30
2022-11-21T09:25:38.582Z,7.20
2022-11-21T09:28:08.611Z,7.20
2022-11-21T09:30:36.955Z,7.20
2022-11-21T09:33:06.640Z,7.20
2022-11-21T09:35:35.131Z,7.20
2022-11-21T09:38:04.468Z,7.20
2022-11-21T09:40:34.032Z,7.20
2022-11-21T09:43:14.726Z,7.30
2022-11-21T09:45:47.739Z,7.40
2022-11-21T09:48:19.746Z,7.50
2022-11-21T09:50:54.028Z,7.60
2022-11-21T09:53:25.999Z,7.80
2022-11-21T09:55:59.732Z,8.00
2022-11-21T09:58:31.999Z,8.00
2022-11-21T10:01:00.455Z,8.00
2022-11-21T10:03:31.167Z,8.00
2022-11-21T10:06:02.403Z,8.10
2022-11-21T10:08:42.663Z,8.20
2022-11-21T10:11:22.425Z,8.10
2022-11-21T10:14:11.121Z,8.20
2022-11-21T10:16:45.765Z,8.30
2022-11-21T10:19:40.217Z,8.40
2022-11-21T10:22:31.584Z,8.40
2022-11-21T10:25:10.805Z,8.40
2022-11-21T10:27:47.691Z,8.40
2022-11-21T10:30:18.555Z,8.40
2022-11-21T10:32:50.048Z,8.50
2022-11-21T10:35:21.816Z,8.60
2022-11-21T10:37:52.197Z,8.70
2022-11-21T10:40:35.247Z,8.80
2022-11-21T10:43:23.568Z,8.80
2022-11-21T10:45:51.977Z,8.90
2022-11-21T10:48:19.976Z,8.90
2022-11-21T10:51:18.961Z,8.90
2022-11-21T10:54:07.829Z,8.90
2022-11-21T10:56:38.071Z,8.90
2022-11-21T10:59:20.155Z,8.90
2022-11-21T11:01:56.438Z,9.00
2022-11-21T11:04:28.617Z,9.00
2022-11-21T11:07:00.014Z,9.10
2022-11-21T11:09:33.040Z,9.20
2022-11-21T11:12:25.095Z,9.30
2022-11-21T11:14:54.593Z,9.20
2022-11-21T11:17:33.634Z,9.20
2022-11-21T11:20:04.428Z,9.10
2022-11-21T11:22:32.594Z,9.00
2022-11-21T11:25:01.253Z,9.00
2022-11-21T11:27:30.956Z,9.00
2022-11-21T11:30:07.545Z,8.90
2022-11-21T11:32:41.369Z,8.90
2022-11-21T11:35:22.509Z,8.90
2022-11-21T11:38:01.063Z,9.00
2022-11-21T11:40:33.885Z,9.00
2022-11-21T11:43:39.662Z,9.00
2022-11-21T11:46:33.892Z,9.00
2022-11-21T11:49:21.809Z,9.00
2022-11-21T11:51:54.065Z,9.00
2022-11-21T11:54:25.371Z,8.90
2022-11-21T11:56:54.675Z,8.90
2022-11-21T11:59:29.205Z,8.80
2022-11-21T12:02:06.302Z,8.70
2022-11-21T12:04:47.114Z,8.60
2022-11-21T12:10:18.122Z,8.40
2022-11-21T12:12:50.003Z,8.40
2022-11-21T12:15:41.207Z,8.30
2022-11-21T12:18:16.748Z,8.30
2022-11-21T12:20:55.394Z,8.30
2022-11-21T12:23:24.912Z,8.40
2022-11-21T12:26:04.900Z,8.50
2022-11-21T12:28:42.180Z,8.60
2022-11-21T12:31:19.896Z,8.70
2022-11-21T12:33:55.901Z,8.90
2022-11-21T12:36:35.462Z,9.10
2022-11-21T12:39:27.314Z,9.20
2022-11-21T12:42:20.201Z,9.30
2022-11-21T12:45:02.296Z,9.40
2022-11-21T12:48:09.010Z,9.40
2022-11-21T12:51:03.740Z,9.30
2022-11-21T12:53:56.238Z,9.10
2022-11-21T12:56:33.800Z,9.00
2022-11-21T12:59:04.447Z,8.90
2022-11-21T13:01:40.068Z,8.90
2022-11-21T13:04:16.432Z,8.90
2022-11-21T13:06:48.094Z,9.00
2022-11-21T13:09:20.110Z,9.00
2022-11-21T13:12:01.074Z,9.00
2022-11-21T13:14:41.864Z,9.00
2022-11-21T13:17:35.929Z,9.00
2022-11-21T13:20:16.372Z,8.90
2022-11-21T13:22:52.786Z,8.90
2022-11-21T13:25:39.614Z,8.80
2022-11-21T13:28:33.744Z,8.70
2022-11-21T13:31:03.395Z,8.70
2022-11-21T13:33:50.297Z,8.70
2022-11-21T13:36:52.996Z,8.60
2022-11-21T13:39:30.959Z,8.70
2022-11-21T13:42:22.137Z,8.70
2022-11-21T13:44:50.739Z,8.60
2022-11-21T13:47:55.675Z,8.70
2022-11-21T13:50:49.034Z,8.70
2022-11-21T13:53:58.109Z,8.70
2022-11-21T13:56:36.237Z,8.80
2022-11-21T13:59:40.480Z,8.70
2022-11-21T14:02:26.033Z,8.70
2022-11-21T14:05:17.282Z,8.70
2022-11-21T14:07:45.996Z,8.60
2022-11-21T14:10:33.586Z,8.70
2022-11-21T14:13:03.990Z,8.60
2022-11-21T14:15:39.783Z,8.60
2022-11-21T14:18:20.898Z,8.60
2022-11-21T14:20:53.793Z,8.60
2022-11-21T14:23:23.634Z,8.50
2022-11-21T14:25:57.599Z,8.50
2022-11-21T14:28:29.134Z,8.40
2022-11-21T14:30:58.410Z,8.40
2022-11-21T14:33:29.028Z,8.40
2022-11-21T14:36:01.361Z,8.30
2022-11-21T14:38:31.361Z,8.30
2022-11-21T14:41:29.804Z,8.20
2022-11-21T14:44:17.533Z,8.20
2022-11-21T14:46:47.323Z,8.10
2022-11-21T14:49:29.702Z,8.10
2022-11-21T14:52:07.187Z,8.00
2022-11-21T14:54:54.920Z,8.00
2022-11-21T14:57:37.673Z,7.90
2022-11-21T15:00:07.631Z,7.90
2022-11-21T15:02:36.203Z,7.90
2022-11-21T15:05:06.466Z,7.80
2022-11-21T15:07:40.598Z,7.80
2022-11-21T15:10:29.957Z,7.80
2022-11-21T15:13:06.991Z,7.70
2022-11-21T15:15:37.873Z,7.70
2022-11-21T15:18:26.976Z,7.70
2022-11-21T15:20:59.181Z,7.60
2022-11-21T15:23:29.135Z,7.50
2022-11-21T15:26:00.888Z,7.50
2022-11-21T15:28:31.883Z,7.40
2022-11-21T15:31:18.942Z,7.40
2022-11-21T15:34:27.769Z,7.40
2022-11-21T15:37:04.661Z,7.30
2022-11-21T15:39:34.031Z,7.30
2022-11-21T15:42:35.719Z,7.20
2022-11-21T15:45:23.016Z,7.10
2022-11-21T15:47:51.342Z,6.90
2022-11-21T15:50:19.591Z,6.90
2022-11-21T15:52:48.825Z,6.80
2022-11-21T15:55:21.209Z,6.70
2022-11-21T15:57:49.313Z,6.70
2022-11-21T16:00:19.457Z,6.80
2022-11-21T16:02:47.826Z,6.60
2022-11-21T16:05:16.827Z,6.50
2022-11-21T16:07:45.397Z,6.50
2022-11-21T16:10:19.875Z,6.50
2022-11-21T16:12:52.254Z,6.50
2022-11-21T16:15:21.886Z,6.50
2022-11-21T16:17:50.174Z,6.40
2022-11-21T16:20:18.221Z,6.40
2022-11-21T16:22:48.430Z,6.40
2022-11-21T16:25:18.020Z,6.40
2022-11-21T16:27:47.168Z,6.40
2022-11-21T16:30:16.169Z,6.40
2022-11-21T16:32:45.509Z,6.30
2022-11-21T16:35:13.621Z,6.70
2022-11-21T16:37:41.887Z,6.30
2022-11-21T16:40:11.426Z,6.30
2022-11-21T16:42:39.529Z,6.30
2022-11-21T16:45:08.355Z,6.30
2022-11-21T16:47:38.185Z,6.30
2022-11-21T16:50:07.962Z,6.30
2022-11-21T16:52:36.732Z,6.40
2022-11-21T16:55:05.475Z,6.40
2022-11-21T16:57:36.700Z,6.30
2022-11-21T17:00:06.015Z,6.40
2022-11-21T17:02:34.128Z,6.40
2022-11-21T17:05:02.161Z,6.40
2022-11-21T17:07:32.159Z,6.40
2022-11-21T17:10:00.257Z,6.40
2022-11-21T17:12:28.295Z,6.30
2022-11-21T17:14:56.648Z,6.30
2022-11-21T17:17:24.696Z,6.30
2022-11-21T17:19:54.492Z,6.30
2022-11-21T17:22:24.836Z,6.30
2022-11-21T17:24:55.640Z,6.30
2022-11-21T17:27:25.189Z,6.30
2022-11-21T17:29:53.486Z,6.30
2022-11-21T17:32:21.576Z,6.30
2022-11-21T17:34:49.525Z,6.30
2022-11-21T17:37:17.874Z,6.40
2022-11-21T17:39:45.864Z,6.40
2022-11-21T17:42:15.196Z,6.30
2022-11-21T17:44:43.138Z,6.30
2022-11-21T17:47:11.133Z,6.30
2022-11-21T17:49:39.077Z,6.30
2022-11-21T17:52:08.077Z,6.30
2022-11-21T17:54:36.180Z,6.30
2022-11-21T17:57:04.329Z,6.30
2022-11-21T17:59:34.678Z,6.30
2022-11-21T18:02:03.082Z,6.20
2022-11-21T18:04:31.355Z,6.20
2022-11-21T18:06:59.443Z,6.20
2022-11-21T18:09:28.417Z,6.20
2022-11-21T18:11:57.912Z,6.20
2022-11-21T18:14:26.728Z,6.30
2022-11-21T18:16:56.893Z,6.30
2022-11-21T18:19:25.221Z,6.30
2022-11-21T18:21:53.237Z,6.40
2022-11-21T18:24:21.306Z,6.40
2022-11-21T18:26:49.865Z,6.40
2022-11-21T18:29:35.833Z,6.40
2022-11-21T18:32:09.011Z,6.40
2022-11-21T18:34:37.271Z,6.40
2022-11-21T18:37:05.322Z,6.50
2022-11-21T18:39:33.616Z,6.50
2022-11-21T18:42:01.904Z,6.50
2022-11-21T18:44:30.171Z,6.50
2022-11-21T18:46:59.136Z,6.50
2022-11-21T18:49:28.777Z,6.50
2022-11-21T18:51:57.233Z,6.60
2022-11-21T18:54:25.320Z,6.60
2022-11-21T18:56:53.704Z,6.60
2022-11-21T18:59:21.895Z,6.60
2022-11-21T19:01:51.150Z,6.50
2022-11-21T19:04:19.571Z,6.50
2022-11-21T19:06:49.294Z,6.60
2022-11-21T19:09:17.278Z,6.50
2022-11-21T19:11:45.577Z,6.50
2022-11-21T19:14:13.740Z,6.50
2022-11-21T19:16:41.755Z,6.60
2022-11-21T19:22:01.031Z,6.50
2022-11-21T19:24:28.976Z,6.50
2022-11-21T19:26:56.891Z,6.50
2022-11-21T19:29:24.856Z,6.60
2022-11-21T19:31:52.786Z,6.50
2022-11-21T19:34:20.742Z,6.50
2022-11-21T19:36:48.795Z,6.50
2022-11-21T19:39:18.200Z,6.50
2022-11-21T19:41:48.543Z,6.40
2022-11-21T19:44:16.599Z,6.50
2022-11-21T19:46:44.530Z,6.40
2022-11-21T19:49:13.436Z,6.40
2022-11-21T19:51:42.712Z,6.40
2022-11-21T19:54:13.022Z,6.40
2022-11-21T19:56:42.319Z,6.40
2022-11-21T19:59:12.358Z,6.30
2022-11-21T20:01:40.637Z,6.30
2022-11-21T20:04:08.665Z,6.30
2022-11-21T20:06:38.578Z,6.30
2022-11-21T20:09:08.604Z,6.30
2022-11-21T20:11:39.846Z,6.30
2022-11-21T20:14:09.747Z,6.30
2022-11-21T20:16:39.815Z,6.30
2022-11-21T20:19:09.936Z,6.30
2022-11-21T20:21:38.301Z,6.30
2022-11-21T20:24:07.101Z,6.30
2022-11-21T20:26:36.551Z,6.30
2022-11-21T20:29:05.994Z,6.30
2022-11-21T20:31:37.112Z,6.30
2022-11-21T20:34:06.762Z,6.30
2022-11-21T20:36:36.633Z,6.30
2022-11-21T20:39:06.251Z,6.30
2022-11-21T20:41:36.331Z,6.30
2022-11-21T20:46:55.221Z,6.20
2022-11-21T20:49:23.317Z,6.30
2022-11-21T20:53:31.311Z,6.30
2022-11-21T20:54:39.359Z,6.20
2022-11-21T20:57:13.112Z,6.30
2022-11-21T20:59:42.666Z,6.30
2022-11-21T21:02:13.907Z,6.30
2022-11-21T21:04:42.427Z,6.30
2022-11-21T21:07:10.539Z,6.30
2022-11-21T21:09:38.540Z,6.30
2022-11-21T21:12:06.808Z,6.30
2022-11-21T21:14:34.744Z,6.30
2022-11-21T21:17:02.681Z,6.30
2022-11-21T21:19:32.143Z,6.30
2022-11-21T21:22:00.340Z,6.30
2022-11-21T21:24:28.365Z,6.30
2022-11-21T21:26:56.285Z,6.30
2022-11-21T21:29:24.558Z,6.30
2022-11-21T21:31:53.235Z,6.30
2022-11-21T21:34:22.175Z,6.30
2022-11-21T21:36:52.134Z,6.30
2022-11-21T21:39:20.185Z,6.40
2022-11-21T21:41:48.344Z,6.40
2022-11-21T21:44:17.006Z,6.40
2022-11-21T21:46:45.086Z,6.40
2022-11-21T21:49:13.419Z,6.40
2022-11-21T21:51:41.977Z,6.40
2022-11-21T21:54:17.888Z,6.40
2022-11-21T21:56:46.907Z,6.50
2022-11-21T21:59:15.617Z,6.50
2022-11-21T22:01:43.789Z,6.40
2022-11-21T22:04:13.302Z,6.50
2022-11-21T22:06:41.508Z,6.50
2022-11-21T22:09:09.541Z,6.50
2022-11-21T22:11:39.757Z,6.50
2022-11-21T22:14:11.180Z,6.50
2022-11-21T22:16:39.507Z,6.50
2022-11-21T22:19:08.129Z,6.50
2022-11-21T22:21:37.735Z,6.40
2022-11-21T22:24:27.444Z,6.50
2022-11-21T22:26:57.087Z,6.50
2022-11-21T22:29:25.279Z,6.50
2022-11-21T22:31:53.372Z,6.50
2022-11-21T22:34:21.582Z,6.50
2022-11-21T22:36:49.551Z,6.60
2022-11-21T22:39:17.943Z,6.50
2022-11-21T22:41:46.002Z,6.50
2022-11-21T22:44:15.292Z,6.60
2022-11-21T22:46:43.359Z,6.60
2022-11-21T22:49:11.245Z,6.60
2022-11-21T22:51:39.128Z,6.60
2022-11-21T22:54:07.152Z,6.70
2022-11-21T22:56:35.120Z,6.60
2022-11-21T22:59:03.145Z,6.60
2022-11-21T23:01:33.781Z,6.60
2022-11-21T23:04:01.754Z,6.60
2022-11-21T23:06:29.725Z,6.60
2022-11-21T23:08:58.212Z,6.60
2022-11-21T23:11:28.135Z,6.70
2022-11-21T23:13:57.366Z,6.70
2022-11-21T23:16:25.752Z,6.70
2022-11-21T23:18:56.458Z,6.70
2022-11-21T23:21:24.439Z,6.70
2022-11-21T23:23:52.410Z,6.70
2022-11-21T23:26:21.023Z,6.70
2022-11-21T23:28:49.056Z,6.70
2022-11-21T23:31:17.181Z,6.70
2022-11-21T23:33:45.136Z,6.80
2022-11-21T23:36:14.490Z,6.80
2022-11-21T23:38:42.856Z,6.80
2022-11-21T23:41:10.819Z,6.80
2022-11-21T23:43:38.777Z,6.80
2022-11-21T23:46:06.736Z,6.80
2022-11-21T23:48:34.645Z,6.80
2022-11-21T23:51:02.551Z,6.90
2022-11-21T23:53:31.849Z,6.90
2022-11-21T23:56:00.078Z,6.90
2022-11-21T23:58:28.050Z,6.90
